Niznij Novgorod, Russia
Current Conditions -  °F | °C
As of 12:30 AM on Thursday 18 Dec 2014 (Local Time) from UWGG Reporting Station
Overcast Overcast  
Wind Chill: 24°   Ceiling: 1100
Heat Index: 34°   Visibility: 6mi
Dew Point: 32°   Wind: 16mph
Humidity: 93%   Direction: 180°S
Pressure: 29.83"   Gusts: NA
Location:  56.3°N, 43.93°E
Report Text: UWGG 172130Z 18007MPS 9999 OVC011 01/M00 Q1010 NOSIG 18120045RMK QFE750
Loading
Personal Weather Stations






























Interactive Weather Map New forecast layout! Learn more

10-Day Weather Forecast

Advertisements
Track Severe Weather on mobile